Time;durP1;ratioP1;P1;durP2;ratioP2;P2;SDS_P1;SDS_P2;PMS_P1;PMS_P2;Temp;Humidity;BMP_temperature;BMP_pressure;BME280_temperature;BME280_humidity;BME280_pressure;Samples;Min_cycle;Max_cycle;Signal;HPM_P1;HPM_P2
2021/04/06 00:01:57;;;;;;;7.53;3.70;;;;;;;2.22;64.49;98638.01;147552;1147;104710;-69
2021/04/06 00:05:05;;;;;;;7.03;3.47;;;;;;;2.16;63.81;98638.58;147728;1147;104470;-71
2021/04/06 00:08:09;;;;;;;8.18;3.37;;;;;;;2.12;63.84;98635.38;147709;1147;104454;-70
2021/04/06 00:11:14;;;;;;;7.85;3.75;;;;;;;2.06;63.92;98641.21;147743;1148;104953;-71
2021/04/06 00:14:20;;;;;;;7.35;3.60;;;;;;;2.01;63.22;98642.59;147640;1148;104470;-69
2021/04/06 00:17:25;;;;;;;9.13;4.00;;;;;;;1.98;63.74;98648.94;147669;1148;104615;-69
2021/04/06 00:20:31;;;;;;;9.48;3.55;;;;;;;1.91;64.31;98640.78;147743;1147;104580;-70
2021/04/06 00:23:35;;;;;;;7.90;3.20;;;;;;;1.84;64.38;98644.92;147706;1147;104528;-71
2021/04/06 00:26:49;;;;;;;8.48;3.33;;;;;;;1.78;64.53;98655.99;147606;1147;104534;-70
2021/04/06 00:29:56;;;;;;;6.50;3.35;;;;;;;1.75;64.32;98664.14;147325;1147;104470;-72
2021/04/06 00:33:04;;;;;;;9.48;3.37;;;;;;;1.71;65.42;98670.64;147431;1147;104713;-67
2021/04/06 00:36:08;;;;;;;6.40;3.50;;;;;;;1.69;64.32;98677.84;147305;1145;104541;-70
2021/04/06 00:39:12;;;;;;;7.45;3.50;;;;;;;1.64;64.88;98667.73;147429;1147;104525;-71
2021/04/06 00:42:20;;;;;;;6.15;2.95;;;;;;;1.61;64.64;98659.28;147634;1147;104543;-70
2021/04/06 00:45:23;;;;;;;8.48;3.55;;;;;;;1.57;64.05;98664.80;147628;1148;104457;-71
2021/04/06 00:48:26;;;;;;;9.53;3.40;;;;;;;1.47;64.22;98674.47;147431;1147;104543;-69
2021/04/06 00:51:39;;;;;;;10.95;4.05;;;;;;;1.43;65.03;98670.45;147696;1147;105610;-68
2021/04/06 00:54:43;;;;;;;6.22;2.80;;;;;;;1.42;64.76;98679.29;147455;1147;104453;-72
2021/04/06 00:57:47;;;;;;;6.97;3.08;;;;;;;1.44;64.91;98689.67;147507;1147;104547;-70
2021/04/06 01:00:50;;;;;;;6.33;2.65;;;;;;;1.44;64.67;98690.50;147556;1147;104470;-73
2021/04/06 01:03:57;;;;;;;7.72;2.65;;;;;;;1.43;63.95;98693.28;147525;1147;104620;-73
2021/04/06 01:07:13;;;;;;;6.70;2.55;;;;;;;1.42;64.51;98689.80;147782;1146;104485;-70
2021/04/06 01:10:19;;;;;;;6.30;2.10;;;;;;;1.44;64.37;98694.93;147593;1147;104551;-68
2021/04/06 01:13:23;;;;;;;5.40;2.47;;;;;;;1.42;64.67;98702.94;147456;1147;104508;-71
2021/04/06 01:16:26;;;;;;;6.17;2.77;;;;;;;1.41;64.40;98709.18;147639;1147;104586;-69
2021/04/06 01:19:31;;;;;;;8.23;2.77;;;;;;;1.37;64.60;98708.61;147681;1147;104512;-70
2021/04/06 01:22:36;;;;;;;6.35;2.70;;;;;;;1.35;64.81;98715.80;147632;1147;104855;-70
2021/04/06 01:25:44;;;;;;;5.87;2.27;;;;;;;1.36;64.50;98716.62;147504;1148;104494;-72
2021/04/06 01:28:48;;;;;;;4.75;2.33;;;;;;;1.42;64.06;98728.41;147660;1147;104457;-73
2021/04/06 01:31:52;;;;;;;5.53;2.10;;;;;;;1.48;64.55;98731.34;147434;1147;104474;-70
2021/04/06 01:34:56;;;;;;;6.08;2.35;;;;;;;1.54;64.36;98727.33;147751;1147;104584;-70
2021/04/06 01:38:01;;;;;;;6.72;2.72;;;;;;;1.56;64.75;98726.25;147725;1147;104532;-71
2021/04/06 01:41:04;;;;;;;6.15;2.52;;;;;;;1.61;64.59;98732.90;147694;1147;104535;-70
2021/04/06 01:44:10;;;;;;;6.30;2.03;;;;;;;1.63;64.64;98739.67;147132;1147;104583;-70
2021/04/06 01:47:16;;;;;;;5.17;1.98;;;;;;;1.63;64.75;98737.05;147134;1147;104567;-72
2021/04/06 01:50:19;;;;;;;9.10;2.92;;;;;;;1.69;64.52;98740.94;147257;1148;104535;-70
2021/04/06 01:53:24;;;;;;;4.87;2.00;;;;;;;1.63;63.81;98742.30;147564;1146;104558;-69
2021/04/06 01:56:29;;;;;;;6.70;3.00;;;;;;;1.68;64.71;98747.19;147667;1147;104854;-73
2021/04/06 01:59:35;;;;;;;5.20;2.22;;;;;;;1.72;64.76;98751.20;147733;1147;104594;-72
2021/04/06 02:02:42;;;;;;;6.58;2.60;;;;;;;1.74;64.24;98765.05;147670;1147;104565;-70
2021/04/06 02:05:47;;;;;;;4.73;1.93;;;;;;;1.77;64.64;98759.50;147627;1147;104560;-74
2021/04/06 02:08:52;;;;;;;4.92;1.87;;;;;;;1.81;63.75;98752.19;147682;1147;104535;-70
2021/04/06 02:11:55;;;;;;;4.67;1.90;;;;;;;1.83;64.60;98752.88;148262;1148;104443;-70
2021/04/06 02:15:02;;;;;;;4.05;1.90;;;;;;;1.82;63.79;98765.20;147608;1148;104482;-70
2021/04/06 02:18:05;;;;;;;7.28;2.02;;;;;;;1.80;64.39;98769.77;147770;1147;104515;-75
2021/04/06 02:21:09;;;;;;;8.38;2.20;;;;;;;1.82;64.21;98770.46;147551;1147;104662;-69
2021/04/06 02:24:25;;;;;;;4.80;2.08;;;;;;;1.83;64.47;98777.41;147729;1147;104576;-73
2021/04/06 02:27:30;;;;;;;3.52;1.70;;;;;;;1.83;64.59;98772.14;147562;1146;104492;-70
2021/04/06 02:30:33;;;;;;;6.28;1.80;;;;;;;1.88;64.11;98782.25;147509;1147;104592;-72
2021/04/06 02:33:38;;;;;;;4.10;1.70;;;;;;;1.86;64.20;98779.75;147312;1147;104550;-70
2021/04/06 02:36:46;;;;;;;5.47;2.00;;;;;;;1.89;64.22;98778.67;147635;1147;104639;-71
2021/04/06 02:39:51;;;;;;;7.03;1.85;;;;;;;1.92;64.31;98787.09;147628;1147;104535;-70
2021/04/06 02:42:58;;;;;;;5.72;1.82;;;;;;;1.90;64.54;98775.88;147839;1146;104535;-70
2021/04/06 02:46:02;;;;;;;5.33;2.10;;;;;;;1.93;64.30;98786.14;147343;1146;104492;-70
2021/04/06 02:49:05;;;;;;;4.27;1.80;;;;;;;1.96;63.56;98801.67;147190;1147;104472;-68
2021/04/06 02:52:09;;;;;;;4.80;2.23;;;;;;;2.00;64.62;98799.58;147337;1146;104511;-72
2021/04/06 02:55:15;;;;;;;4.03;2.00;;;;;;;2.00;63.50;98801.38;147198;1147;104615;-70
2021/04/06 02:58:18;;;;;;;5.58;2.08;;;;;;;1.93;63.45;98786.14;147703;1147;104534;-70
2021/04/06 03:01:21;;;;;;;5.50;2.17;;;;;;;1.96;63.86;98792.92;147377;1148;104652;-69
2021/04/06 03:04:26;;;;;;;5.35;2.62;;;;;;;2.01;64.28;98792.54;147056;1147;104534;-67
2021/04/06 03:07:29;;;;;;;5.92;2.30;;;;;;;2.04;64.31;98781.73;148022;1146;104519;-69
2021/04/06 03:10:34;;;;;;;19.45;5.87;;;;;;;2.05;63.06;98783.41;147022;1147;104447;-70
2021/04/06 03:13:41;;;;;;;11.90;4.77;;;;;;;2.04;64.11;98794.88;147642;1147;104959;-72
2021/04/06 03:16:47;;;;;;;27.50;9.60;;;;;;;2.02;64.12;98797.67;147647;1147;104575;-73
2021/04/06 03:19:58;;;;;;;123.27;38.30;;;;;;;2.02;63.35;98788.92;147630;1147;104892;-70
2021/04/06 03:23:04;;;;;;;71.85;33.40;;;;;;;2.05;64.40;98783.41;147757;1146;104625;-71
2021/04/06 03:26:08;;;;;;;184.73;103.93;;;;;;;2.03;63.47;98785.34;147382;1148;104978;-70
2021/04/06 03:29:12;;;;;;;51.98;25.82;;;;;;;1.99;64.25;98783.95;147641;1148;104502;-70
2021/04/06 03:32:16;;;;;;;69.50;38.23;;;;;;;1.97;63.81;98786.71;147554;1147;104652;-70
2021/04/06 03:35:24;;;;;;;25.25;14.83;;;;;;;1.95;64.06;98799.99;147708;1147;104469;-70
2021/04/06 03:38:27;;;;;;;12.05;6.53;;;;;;;1.96;63.70;98800.81;147601;1147;104564;-72
2021/04/06 03:41:32;;;;;;;9.93;4.87;;;;;;;1.91;63.49;98793.34;147613;1147;104539;-69
2021/04/06 03:44:36;;;;;;;18.10;11.00;;;;;;;1.92;64.62;98794.16;147423;1147;104462;-70
2021/04/06 03:47:56;;;;;;;17.03;9.57;;;;;;;1.87;63.39;98789.31;147297;1147;104470;-69
2021/04/06 03:51:02;;;;;;;22.70;13.77;;;;;;;1.76;63.58;98784.16;147736;1147;104546;-71
2021/04/06 03:54:06;;;;;;;10.32;6.17;;;;;;;1.68;64.44;98787.45;147296;1147;104595;-72
2021/04/06 03:57:31;;;;;;;11.12;6.92;;;;;;;1.55;64.25;98787.66;147330;1147;104531;-72
2021/04/06 04:00:34;;;;;;;14.05;8.33;;;;;;;1.53;64.50;98783.51;147595;1148;104531;-70
2021/04/06 04:03:38;;;;;;;15.13;7.83;;;;;;;1.49;64.12;98785.56;147562;1147;104553;-67
2021/04/06 04:06:41;;;;;;;10.43;4.87;;;;;;;1.46;64.16;98785.81;147397;1147;104471;-70
2021/04/06 04:09:44;;;;;;;12.73;7.70;;;;;;;1.40;64.98;98786.34;147574;1147;104615;-70
2021/04/06 04:12:47;;;;;;;22.75;11.35;;;;;;;1.34;65.08;98786.88;147721;1148;104653;-74
2021/04/06 04:15:51;;;;;;;41.23;21.85;;;;;;;1.28;65.18;98779.52;147614;1147;104458;-70
2021/04/06 04:18:55;;;;;;;12.82;6.80;;;;;;;1.30;64.85;98782.84;147628;1147;104566;-71
2021/04/06 04:21:58;;;;;;;32.85;19.15;;;;;;;1.32;64.63;98788.80;147649;1147;104535;-70
2021/04/06 04:25:01;;;;;;;45.03;30.17;;;;;;;1.34;65.42;98794.76;147619;1147;104638;-70
2021/04/06 04:28:05;;;;;;;12.90;6.72;;;;;;;1.34;64.22;98789.50;147610;1147;104483;-73
2021/04/06 04:31:11;;;;;;;197.65;122.00;;;;;;;1.33;64.40;98793.11;147607;1147;104468;-72
2021/04/06 04:34:15;;;;;;;17.37;11.28;;;;;;;1.35;64.59;98792.01;147590;1147;104546;-72
2021/04/06 04:37:18;;;;;;;90.00;51.53;;;;;;;1.36;64.40;98798.09;147400;1147;105015;-70
2021/04/06 04:40:21;;;;;;;22.55;12.47;;;;;;;1.38;64.69;98806.67;147086;1148;104587;-70
2021/04/06 04:43:24;;;;;;;16.52;9.38;;;;;;;1.41;64.87;98806.42;147351;1147;104534;-70
2021/04/06 04:46:29;;;;;;;12.83;7.27;;;;;;;1.48;64.76;98807.58;147057;1148;104493;-66
2021/04/06 04:49:32;;;;;;;12.83;5.43;;;;;;;1.60;65.04;98808.31;147475;1147;104505;-74
2021/04/06 04:52:35;;;;;;;10.80;5.00;;;;;;;1.74;65.11;98809.75;147652;1148;104476;-72
2021/04/06 04:55:38;;;;;;;9.73;3.72;;;;;;;1.76;64.58;98811.27;147556;1147;104549;-70
2021/04/06 04:58:42;;;;;;;10.03;5.80;;;;;;;1.80;64.57;98822.36;147437;1147;104546;-72
2021/04/06 05:01:45;;;;;;;10.13;4.17;;;;;;;1.87;64.25;98833.20;147585;1147;104480;-70
2021/04/06 05:04:49;;;;;;;100.47;48.47;;;;;;;1.91;64.01;98824.08;147578;1147;104585;-69
2021/04/06 05:07:52;;;;;;;30.05;13.48;;;;;;;1.96;64.72;98822.72;147515;1147;104543;-74
2021/04/06 05:10:55;;;;;;;30.08;14.40;;;;;;;2.08;63.85;98833.11;147265;1147;104503;-74
2021/04/06 05:13:59;;;;;;;13.32;6.53;;;;;;;2.08;64.91;98835.73;147335;1148;104539;-70
2021/04/06 05:17:02;;;;;;;31.07;15.83;;;;;;;2.13;63.73;98842.27;147682;1147;104482;-70
2021/04/06 05:20:08;;;;;;;16.27;8.80;;;;;;;2.14;64.05;98841.31;147705;1147;104495;-69
2021/04/06 05:23:11;;;;;;;13.03;4.83;;;;;;;2.23;63.47;98854.62;147319;1147;104474;-70
2021/04/06 05:26:14;;;;;;;12.83;6.93;;;;;;;2.25;64.42;98848.28;147359;1147;104884;-70
2021/04/06 05:29:17;;;;;;;240.25;112.30;;;;;;;2.29;63.81;98856.72;147733;1147;104546;-73
2021/04/06 05:32:20;;;;;;;438.55;189.35;;;;;;;2.28;63.32;98853.26;147707;1147;104562;-73
2021/04/06 05:35:23;;;;;;;385.35;169.72;;;;;;;2.29;63.76;98854.08;147649;1147;104582;-69
2021/04/06 05:38:26;;;;;;;284.37;116.27;;;;;;;2.29;64.19;98857.57;147693;1147;104469;-68
2021/04/06 05:41:30;;;;;;;746.25;379.82;;;;;;;2.30;64.31;98855.77;147582;1148;104508;-70
2021/04/06 05:44:34;;;;;;;144.90;58.17;;;;;;;2.29;64.44;98859.34;147728;1147;104560;-69
2021/04/06 05:47:44;;;;;;;123.38;53.05;;;;;;;2.21;64.42;98867.91;147633;1147;104550;-71
2021/04/06 05:50:49;;;;;;;88.23;35.07;;;;;;;2.20;63.27;98850.47;147621;1148;104556;-73
2021/04/06 05:53:54;;;;;;;33.23;17.77;;;;;;;2.15;63.72;98869.28;147644;1147;104505;-70
2021/04/06 05:56:58;;;;;;;15.80;9.40;;;;;;;2.20;63.43;98866.27;147751;1147;104657;-70
2021/04/06 06:00:01;;;;;;;11.50;5.70;;;;;;;2.24;64.28;98878.19;147481;1147;104528;-74
2021/04/06 06:03:06;;;;;;;13.18;5.37;;;;;;;2.22;63.92;98882.75;147453;1147;104549;-69
2021/04/06 06:06:10;;;;;;;10.38;4.80;;;;;;;2.23;62.90;98886.20;147611;1147;104653;-69
2021/04/06 06:09:14;;;;;;;15.53;7.17;;;;;;;2.16;63.41;98878.03;147506;1146;104473;-74
2021/04/06 06:12:20;;;;;;;13.88;5.70;;;;;;;2.21;62.89;98894.23;147611;1148;104570;-72
2021/04/06 06:15:23;;;;;;;25.90;12.95;;;;;;;2.15;63.06;98889.50;147688;1147;104545;-70
2021/04/06 06:18:26;;;;;;;55.88;28.90;;;;;;;2.15;63.46;98889.50;147567;1147;104544;-69
2021/04/06 06:21:44;;;;;;;18.52;7.22;;;;;;;2.20;63.71;98900.48;147591;1147;104556;-69
2021/04/06 06:24:49;;;;;;;14.45;5.95;;;;;;;2.16;64.13;98904.34;147643;1147;104494;-70
2021/04/06 06:27:52;;;;;;;11.43;4.75;;;;;;;2.19;63.19;98901.42;147677;1147;104817;-69
2021/04/06 06:30:57;;;;;;;15.28;6.97;;;;;;;2.30;63.15;98918.93;147534;1147;104550;-70
2021/04/06 06:34:00;;;;;;;17.10;6.77;;;;;;;2.40;63.77;98913.70;147560;1146;104982;-74
2021/04/06 06:37:15;;;;;;;19.50;8.08;;;;;;;2.48;63.01;98896.28;147619;1147;104453;-68
2021/04/06 06:40:25;;;;;;;17.70;8.43;;;;;;;2.51;62.68;98900.43;147777;1146;104464;-70
2021/04/06 06:43:29;;;;;;;20.25;10.32;;;;;;;2.54;63.56;98886.98;147582;1147;104535;-71
2021/04/06 06:46:34;;;;;;;40.47;21.53;;;;;;;2.61;63.12;98901.27;147339;1148;104546;-69
2021/04/06 06:49:39;;;;;;;40.00;23.20;;;;;;;2.67;63.93;98905.98;147424;1147;104550;-69
2021/04/06 06:52:42;;;;;;;45.40;25.00;;;;;;;2.72;63.43;98911.69;147622;1147;104550;-70
2021/04/06 06:55:52;;;;;;;32.63;14.13;;;;;;;2.76;62.76;98917.53;147644;1147;104474;-70
2021/04/06 06:58:55;;;;;;;13.32;6.80;;;;;;;2.77;63.61;98910.45;147622;1147;104916;-69
2021/04/06 07:02:19;;;;;;;72.25;43.48;;;;;;;2.88;63.05;98918.23;147752;1147;106006;-70
2021/04/06 07:05:24;;;;;;;15.13;6.83;;;;;;;3.13;61.95;98917.69;147492;1147;104991;-71
2021/04/06 07:08:33;;;;;;;14.70;5.42;;;;;;;3.33;61.92;98920.34;147663;1147;104547;-71
2021/04/06 07:11:36;;;;;;;29.80;14.98;;;;;;;3.44;62.22;98920.17;147795;1147;104591;-72
2021/04/06 07:14:41;;;;;;;28.07;13.05;;;;;;;3.42;62.83;98930.02;147610;1147;104526;-70
2021/04/06 07:17:45;;;;;;;51.90;26.52;;;;;;;3.62;62.58;98944.05;147376;1147;104604;-70
2021/04/06 07:20:54;;;;;;;25.82;12.85;;;;;;;3.69;61.49;98949.58;147507;1147;105993;-72
2021/04/06 07:24:04;;;;;;;26.48;12.35;;;;;;;3.59;59.04;98946.12;147147;1147;104551;-71
2021/04/06 07:27:09;;;;;;;25.00;12.05;;;;;;;3.56;60.49;98933.20;147283;1147;104481;-72
2021/04/06 07:30:15;;;;;;;11.85;5.15;;;;;;;3.47;61.34;98934.90;147544;1147;104946;-70
2021/04/06 07:33:21;;;;;;;76.05;38.33;;;;;;;3.47;61.41;98941.00;147780;1147;104516;-71
2021/04/06 07:36:26;;;;;;;47.83;19.67;;;;;;;3.43;61.25;98925.61;147564;1147;104461;-69
2021/04/06 07:39:30;;;;;;;45.13;17.17;;;;;;;3.42;61.05;98916.02;147606;1147;104455;-70
2021/04/06 07:42:33;;;;;;;38.75;15.68;;;;;;;3.53;61.17;98914.05;147591;1148;104595;-73
2021/04/06 07:45:44;;;;;;;58.40;22.42;;;;;;;3.71;61.30;98916.82;147688;1147;104532;-70
2021/04/06 07:48:50;;;;;;;75.65;27.27;;;;;;;3.87;60.96;98910.94;147722;1147;104539;-72
2021/04/06 07:51:55;;;;;;;185.88;62.30;;;;;;;3.86;60.83;98925.09;147647;1147;104473;-71
2021/04/06 07:54:58;;;;;;;28.05;10.30;;;;;;;3.77;60.47;98930.40;147436;1147;104500;-72
2021/04/06 07:58:01;;;;;;;21.07;8.90;;;;;;;3.70;61.91;98941.52;147620;1146;104461;-72
2021/04/06 08:01:08;;;;;;;32.83;12.82;;;;;;;3.78;60.96;98937.36;147331;1148;104516;-70
2021/04/06 08:04:11;;;;;;;33.20;12.47;;;;;;;3.85;61.73;98938.42;147250;1147;104542;-71
2021/04/06 08:07:27;;;;;;;61.00;25.05;;;;;;;3.92;61.21;98944.80;147580;1147;104473;-72
2021/04/06 08:10:40;;;;;;;21.40;8.25;;;;;;;4.00;61.47;98952.83;147521;1147;104515;-70
2021/04/06 08:13:44;;;;;;;16.12;6.20;;;;;;;4.12;60.40;98953.52;147713;1147;104589;-70
2021/04/06 08:16:48;;;;;;;13.37;5.33;;;;;;;4.14;60.62;98964.77;147597;1146;104620;-70
2021/04/06 08:19:52;;;;;;;18.23;6.87;;;;;;;4.15;61.17;98966.41;147653;1147;104563;-70
2021/04/06 08:22:58;;;;;;;16.80;7.60;;;;;;;4.19;60.16;98975.70;147812;1147;104545;-74
2021/04/06 08:26:02;;;;;;;11.53;6.63;;;;;;;4.29;61.20;98968.61;147850;1147;104550;-72
2021/04/06 08:29:29;;;;;;;17.10;8.20;;;;;;;4.40;60.73;98977.31;148204;1146;104467;-71
2021/04/06 08:32:32;;;;;;;12.27;5.57;;;;;;;4.56;60.35;98982.82;147841;1147;105366;-71
2021/04/06 08:36:03;;;;;;;21.15;10.38;;;;;;;4.60;60.64;98973.63;147651;1147;104825;-71
2021/04/06 08:39:06;;;;;;;12.78;5.35;;;;;;;4.66;59.67;98970.38;147993;1147;104844;-69
2021/04/06 08:42:14;;;;;;;10.37;5.00;;;;;;;4.92;60.37;98969.67;147802;1147;104460;-70
2021/04/06 08:45:26;;;;;;;72.72;34.38;;;;;;;5.08;59.85;98969.86;147308;1146;104601;-72
2021/04/06 08:48:47;;;;;;;27.65;10.48;;;;;;;5.28;59.71;98969.72;147544;1147;104473;-72
2021/04/06 08:51:53;;;;;;;24.70;8.83;;;;;;;5.45;59.09;98968.89;147887;1147;104458;-73
2021/04/06 08:55:11;;;;;;;22.10;8.80;;;;;;;5.59;58.80;98964.87;147750;1146;104561;-72
2021/04/06 08:58:20;;;;;;;25.62;12.25;;;;;;;5.65;57.82;98950.19;147814;1146;104455;-70
2021/04/06 09:01:23;;;;;;;17.77;8.77;;;;;;;5.68;58.40;98952.55;147580;1146;104547;-70
2021/04/06 09:04:28;;;;;;;22.53;10.53;;;;;;;5.75;58.90;98950.92;147742;1147;105069;-70
2021/04/06 09:07:32;;;;;;;27.22;14.30;;;;;;;5.85;58.83;98950.83;147865;1147;104414;-70
2021/04/06 09:10:42;;;;;;;75.25;46.02;;;;;;;5.78;57.50;98950.63;147934;1147;104468;-69
2021/04/06 09:13:45;;;;;;;87.17;40.77;;;;;;;5.59;57.28;98953.46;147366;1147;104539;-70
2021/04/06 09:16:51;;;;;;;25.70;12.95;;;;;;;5.48;57.43;98960.62;147639;1147;104548;-72
2021/04/06 09:19:56;;;;;;;28.07;14.13;;;;;;;5.41;56.90;98964.89;147810;1147;104547;-72
2021/04/06 09:23:05;;;;;;;16.95;8.40;;;;;;;5.34;57.09;98963.83;147379;1146;104529;-72
2021/04/06 09:26:14;;;;;;;152.05;72.42;;;;;;;5.38;57.02;98970.47;147381;1147;104483;-75
2021/04/06 09:29:19;;;;;;;50.55;24.85;;;;;;;5.43;57.36;98978.80;147477;1147;104550;-77
2021/04/06 09:32:23;;;;;;;41.95;20.80;;;;;;;5.31;55.87;98962.32;147499;1148;104473;-74
2021/04/06 09:35:26;;;;;;;29.60;16.40;;;;;;;5.19;56.55;98986.48;147738;1147;104608;-76
2021/04/06 09:38:30;;;;;;;18.27;9.03;;;;;;;5.03;55.90;98976.58;147742;1147;104552;-76
2021/04/06 09:41:35;;;;;;;69.62;34.78;;;;;;;4.87;56.56;98985.17;147596;1148;104447;-75
2021/04/06 09:44:41;;;;;;;55.10;27.67;;;;;;;4.85;56.89;98993.23;147591;1147;104457;-76
2021/04/06 09:47:44;;;;;;;21.40;9.75;;;;;;;4.71;55.61;98994.57;147560;1147;104572;-78
2021/04/06 09:50:58;;;;;;;18.43;8.80;;;;;;;4.60;55.66;99000.04;147781;1148;104454;-75
2021/04/06 09:54:03;;;;;;;35.17;17.20;;;;;;;4.67;56.88;98985.25;147849;1147;104552;-77
2021/04/06 09:57:10;;;;;;;32.63;16.37;;;;;;;4.86;56.25;98986.13;147824;1146;104476;-78
2021/04/06 10:00:18;;;;;;;32.98;16.10;;;;;;;4.95;56.38;98989.72;147874;1147;104411;-78
2021/04/06 10:03:24;;;;;;;72.85;33.48;;;;;;;5.15;55.68;98990.41;147711;1147;104546;-77
2021/04/06 10:06:39;;;;;;;27.22;12.28;;;;;;;5.17;55.30;98985.80;147713;1147;104553;-78
2021/04/06 10:09:44;;;;;;;17.25;7.67;;;;;;;5.20;55.38;98986.34;147707;1147;104547;-77
2021/04/06 10:12:48;;;;;;;15.13;6.97;;;;;;;5.26;55.39;98988.38;147449;1147;104457;-79
2021/04/06 10:16:05;;;;;;;58.52;30.35;;;;;;;5.00;54.64;98977.69;147423;1148;104495;-78
2021/04/06 10:19:20;;;;;;;51.88;32.90;;;;;;;4.99;54.21;98985.80;147935;1147;104559;-82
2021/04/06 10:22:25;;;;;;;38.80;16.40;;;;;;;5.22;55.38;98978.27;147753;1147;104591;-79
2021/04/06 10:25:45;;;;;;;12.90;6.50;;;;;;;5.18;53.78;98974.27;147916;1145;104612;-78
2021/04/06 10:28:59;;;;;;;10.72;4.97;;;;;;;5.10;53.81;98970.55;147780;1146;104549;-78
2021/04/06 10:32:05;;;;;;;11.45;5.30;;;;;;;5.04;54.34;98981.73;147569;1147;104525;-79
2021/04/06 10:35:13;;;;;;;60.85;22.93;;;;;;;4.90;53.72;98980.39;147555;1148;104456;-79
2021/04/06 10:38:21;;;;;;;14.38;5.72;;;;;;;4.99;54.26;98976.04;147793;1147;104611;-78
2021/04/06 10:41:27;;;;;;;13.55;7.30;;;;;;;5.28;51.14;98975.02;147790;1147;104526;-80
2021/04/06 10:44:31;;;;;;;11.10;5.83;;;;;;;5.21;52.93;98974.77;147475;1147;104470;-81
2021/04/06 10:47:34;;;;;;;11.57;5.27;;;;;;;5.40;53.76;98972.97;147672;1147;104459;-78
2021/04/06 10:50:39;;;;;;;10.15;4.45;;;;;;;5.43;51.45;98981.44;147676;1147;104463;-77
2021/04/06 10:53:46;;;;;;;10.58;5.58;;;;;;;5.36;52.41;98976.91;147750;1147;104615;-78
2021/04/06 10:56:53;;;;;;;11.70;5.15;;;;;;;5.28;52.69;98970.55;147575;1148;104496;-78
2021/04/06 10:59:56;;;;;;;7.93;4.00;;;;;;;5.41;52.80;98969.33;147684;1147;104917;-80
2021/04/06 11:03:15;;;;;;;7.75;4.00;;;;;;;5.49;52.14;98974.71;147593;1147;104554;-78
2021/04/06 11:06:26;;;;;;;7.25;3.85;;;;;;;5.62;53.35;98961.92;147709;1146;104447;-82
2021/04/06 11:09:36;;;;;;;9.13;3.90;;;;;;;5.73;52.06;98963.48;147659;1147;104630;-77
2021/04/06 11:12:40;;;;;;;20.32;12.50;;;;;;;5.80;52.76;98967.18;147818;1147;104505;-80
2021/04/06 11:15:43;;;;;;;48.85;30.90;;;;;;;5.81;52.94;98970.66;147652;1147;104464;-77
2021/04/06 11:18:58;;;;;;;17.87;8.57;;;;;;;5.98;52.75;98966.34;147523;1147;104479;-79
2021/04/06 11:22:04;;;;;;;41.98;22.70;;;;;;;6.07;52.79;98966.23;147662;1147;104555;-80
2021/04/06 11:25:09;;;;;;;603.33;307.98;;;;;;;6.13;53.26;98958.66;147703;1147;104601;-77
2021/04/06 11:28:12;;;;;;;482.77;285.60;;;;;;;6.24;52.09;98963.70;147413;1148;104504;-78
2021/04/06 11:31:16;;;;;;;162.03;101.67;;;;;;;6.31;51.75;98956.77;147631;1147;104466;-77
2021/04/06 11:34:19;;;;;;;39.90;20.37;;;;;;;6.37;49.84;98955.30;147750;1147;104537;-78
2021/04/06 11:37:23;;;;;;;20.43;10.13;;;;;;;6.25;50.25;98949.45;147915;1147;104450;-80
2021/04/06 11:40:26;;;;;;;49.08;24.67;;;;;;;6.19;50.74;98947.44;148053;1147;104617;-79
2021/04/06 11:43:29;;;;;;;27.20;9.83;;;;;;;6.28;51.15;98943.84;148010;1147;104533;-78
2021/04/06 11:46:33;;;;;;;23.20;11.28;;;;;;;6.22;50.16;98950.61;147617;1147;104486;-81
2021/04/06 11:49:37;;;;;;;15.77;6.00;;;;;;;6.30;50.44;98949.82;147804;1147;104458;-78
2021/04/06 11:52:42;;;;;;;13.20;8.08;;;;;;;6.15;50.41;98951.39;147779;1147;104548;-77
2021/04/06 11:55:45;;;;;;;17.70;9.03;;;;;;;6.02;51.36;98957.09;147565;1147;104621;-78
2021/04/06 11:58:49;;;;;;;16.45;7.03;;;;;;;5.98;50.37;98961.05;147638;1147;104517;-78
2021/04/06 12:01:53;;;;;;;12.13;5.53;;;;;;;5.83;49.72;98966.89;147796;1147;104546;-80
2021/04/06 12:04:56;;;;;;;17.15;8.48;;;;;;;5.75;50.12;98956.22;147516;1147;104662;-80
2021/04/06 12:08:00;;;;;;;12.70;6.73;;;;;;;5.80;50.77;98964.53;147723;1147;104455;-80
2021/04/06 12:11:04;;;;;;;18.42;9.30;;;;;;;5.85;51.07;98951.68;147761;1148;104529;-77
2021/04/06 12:14:08;;;;;;;20.17;10.40;;;;;;;6.11;49.85;98958.81;147787;1147;104541;-83
2021/04/06 12:17:11;;;;;;;14.28;4.90;;;;;;;6.20;46.43;98959.70;147812;1147;104492;-78
2021/04/06 12:20:16;;;;;;;13.77;6.77;;;;;;;6.29;49.33;98942.84;147739;1147;104516;-77
2021/04/06 12:23:19;;;;;;;16.30;8.33;;;;;;;6.46;46.92;98947.23;147814;1147;104470;-77
2021/04/06 12:26:23;;;;;;;43.33;13.20;;;;;;;6.40;48.12;98939.10;148002;1147;104950;-77
2021/04/06 12:29:26;;;;;;;26.30;8.55;;;;;;;6.43;48.53;98928.20;147857;1147;104606;-79
2021/04/06 12:32:29;;;;;;;19.00;6.83;;;;;;;6.55;47.08;98948.11;147826;1147;104451;-77
2021/04/06 12:35:32;;;;;;;8.28;3.00;;;;;;;6.34;48.83;98937.09;147745;1147;104558;-78
2021/04/06 12:38:36;;;;;;;6.85;2.72;;;;;;;6.08;46.33;98940.58;147613;1146;104550;-80
2021/04/06 12:41:39;;;;;;;11.40;5.83;;;;;;;6.00;47.22;98937.89;147717;1147;104535;-77
2021/04/06 12:44:44;;;;;;;10.90;3.47;;;;;;;5.99;48.06;98941.54;147585;1147;104461;-78
2021/04/06 12:47:47;;;;;;;38.23;14.87;;;;;;;6.04;48.65;98944.53;147770;1147;104960;-81
2021/04/06 12:50:50;;;;;;;68.47;27.30;;;;;;;5.98;49.60;98937.22;147812;1147;104473;-79
2021/04/06 12:53:53;;;;;;;16.73;6.65;;;;;;;6.01;45.70;98950.16;147740;1147;104549;-81
2021/04/06 12:56:56;;;;;;;32.85;11.68;;;;;;;5.84;47.20;98944.70;147756;1147;104708;-78
2021/04/06 12:59:59;;;;;;;9.10;3.17;;;;;;;5.79;47.99;98932.92;147503;1146;104472;-78
2021/04/06 13:03:03;;;;;;;33.07;17.03;;;;;;;5.90;48.83;98933.48;147632;1146;104531;-78
2021/04/06 13:06:07;;;;;;;9.75;4.22;;;;;;;5.99;47.33;98946.84;147422;1147;104806;-78
2021/04/06 13:09:10;;;;;;;14.75;5.83;;;;;;;5.93;48.35;98936.81;147624;1147;104469;-77
2021/04/06 13:12:14;;;;;;;20.50;9.40;;;;;;;6.03;47.86;98940.23;147721;1148;104649;-78
2021/04/06 13:15:18;;;;;;;8.40;3.50;;;;;;;6.04;46.78;98926.84;147265;1147;104636;-80
2021/04/06 13:18:21;;;;;;;6.85;3.00;;;;;;;5.97;46.02;98927.63;147456;1147;104488;-77
2021/04/06 13:21:24;;;;;;;7.17;2.58;;;;;;;5.98;48.30;98924.80;147422;1147;104591;-80
2021/04/06 13:24:28;;;;;;;10.10;5.25;;;;;;;6.26;47.09;98920.16;147408;1147;104483;-78
2021/04/06 13:27:31;;;;;;;16.95;10.05;;;;;;;6.37;48.17;98916.41;147182;1147;104652;-78
2021/04/06 13:30:35;;;;;;;140.97;75.53;;;;;;;6.66;48.77;98913.38;147810;1147;104473;-80
2021/04/06 13:33:39;;;;;;;20.63;9.97;;;;;;;6.72;43.60;98921.65;147908;1146;104938;-78
2021/04/06 13:36:42;;;;;;;10.98;5.58;;;;;;;6.57;44.09;98927.58;147753;1146;104546;-77
2021/04/06 13:39:45;;;;;;;10.47;5.40;;;;;;;6.60;46.26;98921.12;147799;1147;104841;-77
2021/04/06 13:42:49;;;;;;;7.97;3.58;;;;;;;6.69;45.06;98926.28;147793;1147;104430;-78
2021/04/06 13:45:53;;;;;;;13.58;4.72;;;;;;;6.46;44.25;98923.38;147761;1147;104538;-77
2021/04/06 13:48:56;;;;;;;18.50;13.00;;;;;;;6.45;47.29;98913.79;147750;1147;104569;-79
2021/04/06 13:51:59;;;;;;;15.72;6.58;;;;;;;6.61;46.34;98915.66;147696;1147;104490;-78
2021/04/06 13:55:05;;;;;;;12.65;4.92;;;;;;;6.67;47.67;98917.66;147636;1147;104528;-79
2021/04/06 13:58:11;;;;;;;13.00;5.80;;;;;;;6.65;44.71;98917.00;147755;1146;104735;-80
2021/04/06 14:01:15;;;;;;;11.57;6.17;;;;;;;6.67;46.22;98909.71;147554;1147;104484;-78
2021/04/06 14:04:18;;;;;;;22.95;12.50;;;;;;;6.72;46.35;98911.90;147556;1147;104492;-76
2021/04/06 14:07:21;;;;;;;7.95;3.33;;;;;;;6.65;45.27;98902.92;147445;1147;104538;-79
2021/04/06 14:10:26;;;;;;;15.65;5.45;;;;;;;6.48;44.51;98921.41;147702;1147;104450;-81
2021/04/06 14:13:30;;;;;;;29.40;14.43;;;;;;;6.34;44.92;98907.95;147575;1147;104884;-78